createdAt,value
2022-11-21T04:30:56.178Z,87.70
2022-11-21T04:31:29.340Z,88.40
2022-11-21T04:32:01.127Z,88.60
2022-11-21T04:32:32.929Z,88.80
2022-11-21T04:33:04.885Z,89.00
2022-11-21T04:33:36.663Z,90.40
2022-11-21T04:34:08.412Z,89.70
2022-11-21T04:34:40.248Z,90.60
2022-11-21T04:35:12.062Z,89.40
2022-11-21T04:35:45.273Z,89.30
2022-11-21T04:36:17.074Z,89.30
2022-11-21T04:36:48.871Z,90.00
2022-11-21T04:37:21.011Z,89.80
2022-11-21T04:37:53.314Z,89.50
2022-11-21T04:38:25.348Z,90.70
2022-11-21T04:38:57.077Z,89.50
2022-11-21T04:39:28.764Z,90.10
2022-11-21T04:40:00.497Z,90.60
2022-11-21T04:40:32.285Z,89.70
2022-11-21T04:41:04.903Z,89.60
2022-11-21T04:41:36.959Z,89.70
2022-11-21T04:42:08.688Z,89.70
2022-11-21T04:42:47.908Z,90.10
2022-11-21T04:43:19.698Z,89.60
2022-11-21T04:43:51.488Z,90.00
2022-11-21T04:44:23.328Z,90.60
2022-11-21T04:44:55.120Z,89.60
2022-11-21T04:45:27.025Z,90.60
2022-11-21T04:45:58.777Z,89.70
2022-11-21T04:46:30.541Z,90.60
2022-11-21T04:47:05.285Z,89.70
2022-11-21T04:47:41.991Z,89.60
2022-11-21T04:48:13.769Z,89.60
2022-11-21T04:48:45.490Z,89.70
2022-11-21T04:49:17.234Z,89.60
2022-11-21T04:49:49.016Z,89.60
2022-11-21T04:50:21.854Z,90.50
2022-11-21T04:50:53.596Z,89.70
2022-11-21T04:51:25.434Z,89.70
2022-11-21T04:51:57.222Z,90.10
2022-11-21T04:52:29.061Z,90.50
2022-11-21T04:53:00.864Z,89.80
2022-11-21T04:53:32.753Z,89.70
2022-11-21T04:54:04.695Z,90.00
2022-11-21T04:54:36.477Z,89.90
2022-11-21T04:55:09.670Z,90.50
2022-11-21T04:55:41.451Z,89.60
2022-11-21T04:56:16.297Z,89.70
2022-11-21T04:56:48.063Z,89.80
2022-11-21T04:57:19.874Z,90.20
2022-11-21T04:57:51.739Z,89.70
2022-11-21T04:58:23.500Z,89.80
2022-11-21T04:58:55.265Z,90.30
2022-11-21T04:59:27.054Z,89.70
2022-11-21T04:59:59.140Z,90.00
2022-11-21T05:00:30.869Z,89.60
2022-11-21T05:01:07.614Z,89.60
2022-11-21T05:01:39.425Z,90.20
2022-11-21T05:02:11.253Z,90.40
2022-11-21T05:02:43.268Z,90.00
2022-11-21T05:03:15.059Z,89.50
2022-11-21T05:03:46.859Z,90.20
2022-11-21T05:04:18.678Z,89.60
2022-11-21T05:04:50.926Z,90.10
2022-11-21T05:05:22.681Z,90.40
2022-11-21T05:05:54.388Z,89.60
2022-11-21T05:06:26.097Z,90.60
2022-11-21T05:06:57.874Z,89.40
2022-11-21T05:07:29.671Z,90.60
2022-11-21T05:08:01.459Z,89.60
2022-11-21T05:08:33.413Z,89.50
2022-11-21T05:09:05.192Z,89.60
2022-11-21T05:09:36.987Z,90.20
2022-11-21T05:10:09.580Z,90.60
2022-11-21T05:11:01.713Z,89.60
2022-11-21T05:11:52.083Z,89.80
2022-11-21T05:12:42.592Z,89.60
2022-11-21T05:13:23.571Z,90.00
2022-11-21T05:13:55.747Z,89.70
2022-11-21T05:14:27.678Z,90.50
2022-11-21T05:14:59.588Z,89.70
2022-11-21T05:15:31.603Z,90.20
2022-11-21T05:16:03.477Z,90.50
2022-11-21T05:16:35.642Z,89.80
2022-11-21T05:17:07.614Z,89.70
2022-11-21T05:17:39.380Z,90.70
2022-11-21T05:18:11.530Z,90.50
2022-11-21T05:18:43.278Z,90.60
2022-11-21T05:19:15.291Z,89.50
2022-11-21T05:19:47.008Z,89.70
2022-11-21T05:20:19.098Z,89.80
2022-11-21T05:20:50.925Z,89.80
2022-11-21T05:21:22.721Z,90.40
2022-11-21T05:21:54.541Z,90.20
2022-11-21T05:22:26.343Z,89.70
2022-11-21T05:22:58.054Z,90.50
2022-11-21T05:23:29.878Z,90.50
2022-11-21T05:24:01.710Z,89.70
2022-11-21T05:24:33.851Z,90.30
2022-11-21T05:25:05.945Z,89.70
2022-11-21T05:25:37.736Z,89.60
2022-11-21T05:26:09.617Z,90.10
2022-11-21T05:26:41.499Z,90.70
2022-11-21T05:27:13.225Z,89.70
2022-11-21T05:27:44.986Z,89.60
2022-11-21T05:28:16.822Z,90.50
2022-11-21T05:28:48.649Z,89.60
2022-11-21T05:29:26.629Z,90.70
2022-11-21T05:29:59.777Z,89.90
2022-11-21T05:30:31.600Z,90.30
2022-11-21T05:31:03.385Z,89.20
2022-11-21T05:31:35.140Z,90.00
2022-11-21T05:32:06.957Z,90.40
2022-11-21T05:32:38.761Z,90.30
2022-11-21T05:33:10.504Z,90.70
2022-11-21T05:33:42.245Z,90.00
2022-11-21T05:34:14.214Z,89.70
2022-11-21T05:34:46.027Z,89.70
2022-11-21T05:35:17.842Z,89.70
2022-11-21T05:35:49.592Z,90.40
2022-11-21T05:36:21.425Z,89.60
2022-11-21T05:36:58.439Z,90.30
2022-11-21T05:37:30.614Z,90.00
2022-11-21T05:38:02.343Z,90.00
2022-11-21T05:38:34.068Z,89.80
2022-11-21T05:39:06.016Z,90.40
2022-11-21T05:39:37.866Z,89.90
2022-11-21T05:40:10.158Z,90.60
2022-11-21T05:40:41.987Z,89.90
2022-11-21T05:41:13.778Z,89.90
2022-11-21T05:41:45.526Z,90.50
2022-11-21T05:42:37.217Z,89.80
2022-11-21T05:43:30.339Z,89.90
2022-11-21T05:44:02.112Z,90.40
2022-11-21T05:44:33.849Z,90.30
2022-11-21T05:45:05.987Z,90.80
2022-11-21T05:45:37.745Z,90.00
2022-11-21T05:46:09.484Z,90.20
2022-11-21T05:46:41.278Z,90.60
2022-11-21T05:47:12.969Z,90.50
2022-11-21T05:47:44.751Z,89.90
2022-11-21T05:48:17.370Z,90.30
2022-11-21T05:48:50.355Z,89.80
2022-11-21T05:49:22.125Z,89.80
2022-11-21T05:49:53.908Z,90.40
2022-11-21T05:50:26.582Z,89.70
2022-11-21T05:51:01.241Z,90.20
2022-11-21T05:51:33.013Z,89.70
2022-11-21T05:52:04.946Z,90.60
2022-11-21T05:52:36.627Z,89.90
2022-11-21T05:53:08.430Z,90.60
2022-11-21T05:53:40.425Z,90.20
2022-11-21T05:54:14.623Z,90.00
2022-11-21T05:54:46.357Z,89.70
2022-11-21T05:55:18.119Z,90.50
2022-11-21T05:55:49.839Z,90.10
2022-11-21T05:56:21.593Z,90.60
2022-11-21T05:56:53.392Z,90.50
2022-11-21T05:57:25.192Z,90.10
2022-11-21T05:58:00.788Z,89.90
2022-11-21T05:58:33.074Z,90.80
2022-11-21T05:59:04.805Z,90.50
2022-11-21T05:59:36.526Z,90.00
2022-11-21T06:00:09.003Z,90.70
2022-11-21T06:00:40.755Z,90.00
2022-11-21T06:01:37.158Z,90.00
2022-11-21T06:02:27.772Z,90.80
2022-11-21T06:03:18.410Z,90.60
2022-11-21T06:03:50.147Z,90.80
2022-11-21T06:04:22.051Z,90.10
2022-11-21T06:04:53.779Z,90.00
2022-11-21T06:05:25.740Z,90.90
2022-11-21T06:06:07.636Z,90.10
2022-11-21T06:06:39.411Z,88.60
2022-11-21T06:07:11.266Z,90.30
2022-11-21T06:07:43.113Z,90.10
2022-11-21T06:08:14.886Z,90.00
2022-11-21T06:08:47.375Z,90.10
2022-11-21T06:09:19.147Z,90.00
2022-11-21T06:09:50.979Z,90.40
2022-11-21T06:10:22.696Z,90.80
2022-11-21T06:10:54.545Z,90.80
2022-11-21T06:11:26.371Z,90.60
2022-11-21T06:11:58.182Z,90.10
2022-11-21T06:12:29.930Z,90.10
2022-11-21T06:13:02.637Z,90.10
2022-11-21T06:13:34.823Z,90.00
2022-11-21T06:14:06.726Z,90.40
2022-11-21T06:14:38.452Z,90.10
2022-11-21T06:15:10.683Z,90.50
2022-11-21T06:15:42.430Z,90.10
2022-11-21T06:16:16.578Z,90.70
2022-11-21T06:16:50.060Z,90.10
2022-11-21T06:17:21.800Z,90.20
2022-11-21T06:17:53.625Z,90.60
2022-11-21T06:18:26.223Z,90.10
2022-11-21T06:18:58.867Z,90.20
2022-11-21T06:19:30.791Z,90.90
2022-11-21T06:20:02.662Z,90.80
2022-11-21T06:20:36.397Z,90.20
2022-11-21T06:21:18.048Z,90.90
2022-11-21T06:21:49.767Z,90.20
2022-11-21T06:22:21.612Z,90.30
2022-11-21T06:22:53.472Z,90.70
2022-11-21T06:23:25.190Z,90.40
2022-11-21T06:23:58.779Z,90.50
2022-11-21T06:24:30.677Z,90.10
2022-11-21T06:25:02.580Z,90.80
2022-11-21T06:25:34.511Z,90.60
2022-11-21T06:26:09.225Z,90.20
2022-11-21T06:26:41.029Z,90.10
2022-11-21T06:27:12.791Z,90.90
2022-11-21T06:27:44.523Z,90.90
2022-11-21T06:28:16.308Z,90.70
2022-11-21T06:28:48.892Z,90.20
2022-11-21T06:29:22.152Z,90.70
2022-11-21T06:29:53.914Z,90.90
2022-11-21T06:30:25.746Z,90.80
2022-11-21T06:31:01.943Z,90.70
2022-11-21T06:31:33.960Z,90.70
2022-11-21T06:32:05.741Z,91.10
2022-11-21T06:32:38.631Z,90.20
2022-11-21T06:33:10.477Z,90.20
2022-11-21T06:33:43.439Z,90.50
2022-11-21T06:34:15.229Z,90.30
2022-11-21T06:34:47.054Z,91.10
2022-11-21T06:35:18.809Z,90.30
2022-11-21T06:35:50.592Z,90.30
2022-11-21T06:36:22.929Z,91.00
2022-11-21T06:36:54.792Z,90.80
2022-11-21T06:37:26.553Z,90.40
2022-11-21T06:37:58.771Z,91.10
2022-11-21T06:38:30.638Z,91.00
2022-11-21T06:39:02.416Z,90.40
2022-11-21T06:39:34.199Z,91.10
2022-11-21T06:40:06.438Z,90.60
2022-11-21T06:40:38.293Z,90.40
2022-11-21T06:41:19.130Z,91.00
2022-11-21T06:41:51.263Z,91.20
2022-11-21T06:42:23.157Z,90.50
2022-11-21T06:42:56.289Z,90.50
2022-11-21T06:43:28.004Z,90.50
2022-11-21T06:44:03.202Z,91.20
2022-11-21T06:44:34.965Z,90.50
2022-11-21T06:45:07.146Z,90.50
2022-11-21T06:45:38.999Z,90.50
2022-11-21T06:46:11.494Z,90.50
2022-11-21T06:46:46.966Z,90.50
2022-11-21T06:47:21.540Z,90.80
2022-11-21T06:47:53.279Z,90.50
2022-11-21T06:48:25.237Z,90.70
2022-11-21T06:48:57.085Z,90.60
2022-11-21T06:49:28.873Z,90.50
2022-11-21T06:50:00.964Z,91.10
2022-11-21T06:50:32.751Z,90.50
2022-11-21T06:51:24.447Z,90.50
2022-11-21T06:51:56.191Z,90.60
2022-11-21T06:52:27.915Z,90.50
2022-11-21T06:53:00.947Z,90.70
2022-11-21T06:53:33.782Z,90.60
2022-11-21T06:54:05.607Z,90.50
2022-11-21T06:54:37.395Z,90.50
2022-11-21T06:55:10.654Z,90.60
2022-11-21T06:55:42.540Z,90.60
2022-11-21T06:56:15.355Z,91.10
2022-11-21T06:56:47.083Z,91.40
2022-11-21T06:57:18.875Z,91.20
2022-11-21T06:57:50.716Z,91.20
2022-11-21T06:58:23.472Z,90.60
2022-11-21T06:58:55.851Z,90.60
2022-11-21T06:59:27.612Z,91.20
2022-11-21T06:59:59.377Z,90.70
2022-11-21T07:00:31.090Z,90.60
2022-11-21T07:01:08.882Z,90.60
2022-11-21T07:01:40.820Z,91.10
2022-11-21T07:02:15.745Z,91.30
2022-11-21T07:02:47.540Z,91.10
2022-11-21T07:03:19.588Z,91.20
2022-11-21T07:03:51.822Z,91.40
2022-11-21T07:04:23.557Z,90.60
2022-11-21T07:04:55.319Z,90.60
2022-11-21T07:05:27.421Z,90.60
2022-11-21T07:06:01.834Z,91.00
2022-11-21T07:06:34.977Z,91.10
2022-11-21T07:07:07.237Z,91.20
2022-11-21T07:07:39.223Z,90.60
2022-11-21T07:08:13.451Z,90.90
2022-11-21T07:08:45.436Z,91.40
2022-11-21T07:09:32.768Z,91.40
2022-11-21T07:10:05.681Z,91.00
2022-11-21T07:10:37.451Z,90.70
2022-11-21T07:11:28.019Z,90.70
2022-11-21T07:12:20.217Z,90.70
2022-11-21T07:13:10.718Z,91.40
2022-11-21T07:13:43.532Z,91.40
2022-11-21T07:14:15.267Z,90.70
2022-11-21T07:14:47.305Z,90.70
2022-11-21T07:15:19.131Z,91.10
2022-11-21T07:15:53.060Z,90.80
2022-11-21T07:16:26.232Z,90.70
2022-11-21T07:16:58.233Z,91.30
2022-11-21T07:17:29.996Z,91.30
2022-11-21T07:18:02.149Z,90.80
2022-11-21T07:18:34.915Z,90.80
2022-11-21T07:19:06.657Z,91.00
2022-11-21T07:19:40.968Z,91.30
2022-11-21T07:20:13.543Z,91.40
2022-11-21T07:20:45.712Z,90.80
2022-11-21T07:21:17.519Z,90.80
2022-11-21T07:21:49.321Z,91.60
2022-11-21T07:22:21.105Z,90.80
2022-11-21T07:22:56.052Z,91.10
2022-11-21T07:23:28.858Z,91.40
2022-11-21T07:24:00.710Z,91.50
2022-11-21T07:24:32.477Z,90.80
2022-11-21T07:25:04.693Z,90.80
2022-11-21T07:25:37.135Z,90.80
2022-11-21T07:26:10.427Z,90.80
2022-11-21T07:26:42.224Z,90.80
2022-11-21T07:27:14.041Z,91.10
2022-11-21T07:27:45.767Z,91.10
2022-11-21T07:28:17.540Z,90.80
2022-11-21T07:28:49.329Z,90.80
2022-11-21T07:29:21.032Z,91.30
2022-11-21T07:29:52.904Z,91.20
2022-11-21T07:30:24.698Z,90.90
2022-11-21T07:30:57.565Z,90.80
2022-11-21T07:31:29.350Z,91.60
2022-11-21T07:32:01.104Z,90.80
2022-11-21T07:32:32.965Z,90.80
2022-11-21T07:33:07.004Z,91.60
2022-11-21T07:33:38.821Z,90.80
2022-11-21T07:34:10.585Z,90.80
2022-11-21T07:34:42.343Z,90.90
2022-11-21T07:35:14.175Z,91.30
2022-11-21T07:35:45.914Z,90.90
2022-11-21T07:36:17.648Z,91.60
2022-11-21T07:36:49.396Z,90.50
2022-11-21T07:37:21.082Z,91.60
2022-11-21T07:37:53.482Z,91.50
2022-11-21T07:38:26.659Z,91.30
2022-11-21T07:38:58.387Z,90.90
2022-11-21T07:39:30.318Z,90.90
2022-11-21T07:40:02.348Z,91.70
2022-11-21T07:40:34.705Z,91.60
2022-11-21T07:41:06.461Z,90.90
2022-11-21T07:41:38.578Z,90.90
2022-11-21T07:42:10.283Z,90.80
2022-11-21T07:42:42.233Z,90.90
2022-11-21T07:43:14.045Z,91.70
2022-11-21T07:43:45.842Z,90.90
2022-11-21T07:44:17.695Z,91.30
2022-11-21T07:44:49.514Z,90.90
2022-11-21T07:45:21.299Z,91.60
2022-11-21T07:45:53.077Z,90.90
2022-11-21T07:46:24.818Z,91.60
2022-11-21T07:46:56.679Z,91.00
2022-11-21T07:47:28.474Z,91.30
2022-11-21T07:48:01.894Z,91.10
2022-11-21T07:48:33.740Z,91.30
2022-11-21T07:49:05.514Z,90.80
2022-11-21T07:49:37.320Z,90.90
2022-11-21T07:50:11.163Z,91.80
2022-11-21T07:50:42.964Z,90.90
2022-11-21T07:51:14.700Z,91.50
2022-11-21T07:51:46.398Z,91.00
2022-11-21T07:52:18.156Z,91.00
2022-11-21T07:52:49.937Z,91.60
2022-11-21T07:53:21.890Z,91.00
2022-11-21T07:53:53.648Z,91.00
2022-11-21T07:54:25.522Z,91.60
2022-11-21T07:54:57.866Z,91.20
2022-11-21T07:55:30.108Z,91.00
2022-11-21T07:56:01.880Z,90.40
2022-11-21T07:56:33.623Z,91.00
2022-11-21T07:57:05.447Z,91.00
2022-11-21T07:57:37.196Z,91.40
2022-11-21T07:58:11.992Z,91.00
2022-11-21T07:58:43.677Z,91.00
2022-11-21T07:59:15.503Z,91.00
2022-11-21T07:59:47.337Z,91.20
2022-11-21T08:00:19.342Z,91.50
2022-11-21T08:00:51.178Z,91.00
2022-11-21T08:01:22.987Z,91.80
2022-11-21T08:01:54.836Z,91.80
2022-11-21T08:02:28.297Z,91.00
2022-11-21T08:03:00.180Z,91.50
2022-11-21T08:03:33.294Z,91.40
2022-11-21T08:04:05.158Z,91.00
2022-11-21T08:04:36.889Z,91.80
2022-11-21T08:05:08.973Z,91.00
2022-11-21T08:05:44.984Z,91.00
2022-11-21T08:06:16.761Z,91.00
2022-11-21T08:06:48.492Z,91.50
2022-11-21T08:07:22.241Z,91.00
2022-11-21T08:07:54.075Z,91.60
2022-11-21T08:08:25.836Z,91.00
2022-11-21T08:08:57.545Z,91.60
2022-11-21T08:09:29.834Z,91.80
2022-11-21T08:10:01.707Z,91.00
2022-11-21T08:10:36.927Z,91.50
2022-11-21T08:11:08.694Z,91.40
2022-11-21T08:11:40.537Z,91.60
2022-11-21T08:12:12.581Z,91.50
2022-11-21T08:12:45.249Z,91.10
2022-11-21T08:13:16.958Z,91.80
2022-11-21T08:13:48.763Z,91.10
2022-11-21T08:14:20.594Z,91.90
2022-11-21T08:14:52.350Z,91.10
2022-11-21T08:15:24.154Z,91.10
2022-11-21T08:15:55.939Z,91.10
2022-11-21T08:16:28.094Z,91.20
2022-11-21T08:17:00.031Z,91.60
2022-11-21T08:17:31.745Z,91.70
2022-11-21T08:18:18.975Z,91.20
2022-11-21T08:18:51.155Z,91.10
2022-11-21T08:19:22.971Z,91.80
2022-11-21T08:19:54.751Z,91.10
2022-11-21T08:20:26.634Z,91.80
2022-11-21T08:21:01.300Z,91.10
2022-11-21T08:21:33.074Z,91.70
2022-11-21T08:22:04.822Z,91.90
2022-11-21T08:22:41.017Z,91.80
2022-11-21T08:23:13.091Z,91.40
2022-11-21T08:23:44.894Z,91.30
2022-11-21T08:24:17.518Z,91.20
2022-11-21T08:24:49.230Z,91.10
2022-11-21T08:25:20.973Z,91.20
2022-11-21T08:25:52.721Z,91.20
2022-11-21T08:26:24.568Z,91.20
2022-11-21T08:26:56.325Z,91.80
2022-11-21T08:27:28.493Z,91.20
2022-11-21T08:28:03.576Z,91.50
2022-11-21T08:28:35.345Z,91.20
2022-11-21T08:29:07.308Z,91.70
2022-11-21T08:29:39.122Z,92.10
2022-11-21T08:30:12.096Z,91.50
2022-11-21T08:30:44.565Z,91.20
2022-11-21T08:31:16.373Z,91.20
2022-11-21T08:31:48.085Z,91.70
2022-11-21T08:32:19.822Z,91.80
2022-11-21T08:32:51.817Z,91.20
2022-11-21T08:33:23.600Z,91.20
2022-11-21T08:33:58.298Z,91.80
2022-11-21T08:34:31.765Z,91.20
2022-11-21T08:35:03.800Z,91.80
2022-11-21T08:35:39.046Z,91.20
2022-11-21T08:36:10.958Z,91.30
2022-11-21T08:36:42.734Z,91.30
2022-11-21T08:37:14.503Z,91.20
2022-11-21T08:37:46.340Z,91.70
2022-11-21T08:38:18.108Z,91.30
2022-11-21T08:38:49.928Z,91.30
2022-11-21T08:39:21.645Z,91.30
2022-11-21T08:39:53.654Z,91.50
2022-11-21T08:40:28.102Z,91.30
2022-11-21T08:41:18.674Z,91.30
2022-11-21T08:42:05.585Z,91.30
2022-11-21T08:42:38.025Z,91.30
2022-11-21T08:43:10.193Z,91.80
2022-11-21T08:43:42.031Z,91.30
2022-11-21T08:44:14.401Z,91.30
2022-11-21T08:44:46.379Z,91.80
2022-11-21T08:45:18.147Z,91.30
2022-11-21T08:45:49.882Z,91.30
2022-11-21T08:46:21.717Z,91.40
2022-11-21T08:46:53.517Z,91.40
2022-11-21T08:47:25.347Z,91.90
2022-11-21T08:47:57.124Z,91.60
2022-11-21T08:48:28.840Z,91.40
2022-11-21T08:49:00.631Z,91.90
2022-11-21T08:49:32.471Z,91.70
2022-11-21T08:50:08.833Z,92.00
2022-11-21T08:50:40.802Z,91.40
2022-11-21T08:51:12.586Z,91.40
2022-11-21T08:51:47.572Z,91.40
2022-11-21T08:52:19.329Z,91.50
2022-11-21T08:52:51.368Z,91.50
2022-11-21T08:53:23.312Z,91.50
2022-11-21T08:53:55.106Z,91.50
2022-11-21T08:54:27.221Z,91.50
2022-11-21T08:54:59.319Z,91.50
2022-11-21T08:55:31.487Z,91.50
2022-11-21T08:56:04.584Z,92.20
2022-11-21T08:56:36.510Z,91.60
2022-11-21T08:57:08.285Z,91.60
2022-11-21T08:57:41.150Z,91.60
2022-11-21T08:58:12.921Z,92.20
2022-11-21T08:58:44.670Z,91.50
2022-11-21T08:59:17.421Z,92.20
2022-11-21T08:59:49.171Z,91.60
2022-11-21T09:00:20.982Z,91.60
2022-11-21T09:00:52.714Z,91.60
2022-11-21T09:01:24.559Z,91.60
2022-11-21T09:01:57.419Z,91.60
2022-11-21T09:02:29.201Z,91.60
2022-11-21T09:03:05.462Z,91.60
2022-11-21T09:03:37.338Z,91.60
2022-11-21T09:04:09.432Z,91.70
2022-11-21T09:04:41.191Z,91.70
2022-11-21T09:05:12.903Z,91.70
2022-11-21T09:05:45.575Z,92.00
2022-11-21T09:06:17.403Z,91.60
2022-11-21T09:06:49.165Z,92.20
2022-11-21T09:07:21.038Z,91.70
2022-11-21T09:08:01.494Z,91.70
2022-11-21T09:08:33.697Z,91.70
2022-11-21T09:09:06.430Z,91.70
2022-11-21T09:09:38.201Z,92.40
2022-11-21T09:10:10.554Z,91.60
2022-11-21T09:10:42.317Z,91.70
2022-11-21T09:11:14.080Z,91.70
2022-11-21T09:11:46.001Z,91.70
2022-11-21T09:12:17.992Z,92.00
2022-11-21T09:12:49.759Z,92.30
2022-11-21T09:13:21.708Z,92.00
2022-11-21T09:14:13.008Z,91.80
2022-11-21T09:15:03.409Z,91.80
2022-11-21T09:15:54.086Z,91.80
2022-11-21T09:16:44.580Z,91.60
2022-11-21T09:17:35.900Z,92.20
2022-11-21T09:18:08.196Z,91.80
2022-11-21T09:18:40.036Z,92.00
2022-11-21T09:19:11.795Z,91.70
2022-11-21T09:19:43.893Z,91.70
2022-11-21T09:20:15.814Z,92.40
2022-11-21T09:20:47.679Z,91.80
2022-11-21T09:21:21.288Z,92.20
2022-11-21T09:21:53.383Z,91.80
2022-11-21T09:22:28.747Z,91.90
2022-11-21T09:23:08.500Z,91.80
2022-11-21T09:23:40.247Z,92.40
2022-11-21T09:24:12.017Z,92.20
2022-11-21T09:24:43.718Z,91.90
2022-11-21T09:25:15.524Z,91.80
2022-11-21T09:25:47.798Z,91.80
2022-11-21T09:26:19.565Z,92.60
2022-11-21T09:26:51.343Z,91.90
2022-11-21T09:27:23.089Z,92.30
2022-11-21T09:27:58.699Z,91.70
2022-11-21T09:28:30.541Z,91.70
2022-11-21T09:29:03.400Z,91.70
2022-11-21T09:29:35.216Z,92.00
2022-11-21T09:30:07.636Z,91.80
2022-11-21T09:30:40.490Z,91.80
2022-11-21T09:31:12.494Z,91.80
2022-11-21T09:31:46.116Z,91.80
2022-11-21T09:32:18.038Z,92.40
2022-11-21T09:32:49.765Z,92.20
2022-11-21T09:33:21.547Z,91.80
2022-11-21T09:33:55.098Z,91.90
2022-11-21T09:34:27.547Z,92.10
2022-11-21T09:34:59.418Z,91.90
2022-11-21T09:35:31.523Z,92.40
2022-11-21T09:36:03.491Z,91.80
2022-11-21T09:36:36.106Z,91.80
2022-11-21T09:37:08.202Z,91.80
2022-11-21T09:37:40.402Z,91.80
2022-11-21T09:38:12.636Z,92.60
2022-11-21T09:38:45.360Z,91.90
2022-11-21T09:39:17.926Z,92.30
2022-11-21T09:39:49.641Z,92.30
2022-11-21T09:40:23.036Z,91.90
2022-11-21T09:41:29.635Z,92.10
2022-11-21T09:42:26.256Z,91.90
2022-11-21T09:43:13.580Z,91.90
2022-11-21T09:44:08.654Z,92.70
2022-11-21T09:45:10.529Z,92.40
2022-11-21T09:45:51.671Z,91.90
2022-11-21T09:46:32.381Z,91.90
2022-11-21T09:47:24.415Z,91.90
2022-11-21T09:47:56.346Z,91.80
2022-11-21T09:48:56.080Z,91.90
2022-11-21T09:49:28.708Z,91.90
2022-11-21T09:50:25.462Z,91.90
2022-11-21T09:51:06.071Z,91.80
2022-11-21T09:51:40.007Z,91.80
2022-11-21T09:52:15.320Z,92.60
2022-11-21T09:53:06.919Z,91.80
2022-11-21T09:53:46.845Z,91.70
2022-11-21T09:54:31.561Z,92.40
2022-11-21T09:55:08.011Z,92.70
2022-11-21T09:55:48.535Z,91.90
2022-11-21T09:56:23.849Z,92.10
2022-11-21T09:56:56.658Z,92.20
2022-11-21T09:57:33.536Z,91.90
2022-11-21T09:58:40.459Z,92.10
2022-11-21T09:59:12.172Z,91.90
2022-11-21T09:59:47.128Z,91.80
2022-11-21T10:00:26.078Z,92.20
2022-11-21T10:00:58.709Z,91.80
2022-11-21T10:01:32.011Z,91.90
2022-11-21T10:02:15.932Z,91.80
2022-11-21T10:02:48.954Z,92.40
2022-11-21T10:03:24.743Z,92.20
2022-11-21T10:03:56.619Z,92.20
2022-11-21T10:04:29.627Z,91.70
2022-11-21T10:05:01.581Z,92.30
2022-11-21T10:06:00.519Z,92.40
2022-11-21T10:06:42.829Z,92.10
2022-11-21T10:07:32.218Z,92.60
2022-11-21T10:08:32.414Z,91.90
2022-11-21T10:09:08.065Z,92.40
2022-11-21T10:10:17.309Z,91.80
2022-11-21T10:10:55.987Z,91.80
2022-11-21T10:12:08.417Z,91.90
2022-11-21T10:13:01.140Z,91.90
2022-11-21T10:13:45.839Z,91.90
2022-11-21T10:14:30.361Z,91.90
2022-11-21T10:15:29.810Z,92.20
2022-11-21T10:16:18.263Z,92.20
2022-11-21T10:16:59.896Z,92.20
2022-11-21T10:17:43.383Z,92.70
2022-11-21T10:18:40.508Z,92.00
2022-11-21T10:20:06.032Z,92.00
2022-11-21T10:21:12.033Z,91.90
2022-11-21T10:22:08.499Z,91.90
2022-11-21T10:23:17.659Z,92.30
2022-11-21T10:23:59.374Z,92.00
2022-11-21T10:24:49.289Z,92.90
2022-11-21T10:25:27.472Z,91.90
2022-11-21T10:26:22.404Z,91.90
2022-11-21T10:27:14.093Z,92.00
2022-11-21T10:28:13.873Z,92.30
2022-11-21T10:29:13.413Z,92.10
2022-11-21T10:29:53.384Z,92.00
2022-11-21T10:30:25.095Z,92.10
2022-11-21T10:31:00.902Z,92.20
2022-11-21T10:31:38.607Z,92.50
2022-11-21T10:32:23.513Z,92.50
2022-11-21T10:32:59.127Z,92.70
2022-11-21T10:33:32.987Z,92.00
2022-11-21T10:34:12.209Z,92.00
2022-11-21T10:34:44.942Z,92.00
2022-11-21T10:35:21.033Z,92.00
2022-11-21T10:36:02.701Z,92.00
2022-11-21T10:36:39.205Z,92.10
2022-11-21T10:37:19.870Z,92.50
2022-11-21T10:38:14.931Z,92.00
2022-11-21T10:38:50.222Z,92.00
2022-11-21T10:39:33.304Z,92.00
2022-11-21T10:40:38.035Z,92.40
2022-11-21T10:41:25.159Z,92.00
2022-11-21T10:42:09.361Z,92.10
2022-11-21T10:43:29.174Z,92.00
2022-11-21T10:44:41.216Z,92.00
2022-11-21T10:45:18.457Z,92.00
2022-11-21T10:45:50.953Z,92.10
2022-11-21T10:46:22.933Z,92.10
2022-11-21T10:47:01.689Z,92.00
2022-11-21T10:47:37.474Z,92.30
2022-11-21T10:48:09.297Z,92.20
2022-11-21T10:48:41.049Z,93.10
2022-11-21T10:49:15.266Z,92.20
2022-11-21T10:49:49.378Z,92.60
2022-11-21T10:50:32.816Z,92.20
2022-11-21T10:51:13.397Z,92.30
2022-11-21T10:51:53.706Z,92.50
2022-11-21T10:52:27.243Z,92.20
2022-11-21T10:53:24.866Z,92.90
2022-11-21T10:54:23.587Z,92.60
2022-11-21T10:55:04.511Z,92.30
2022-11-21T10:55:36.684Z,92.60
2022-11-21T10:56:13.460Z,92.30
2022-11-21T10:56:45.480Z,92.30
2022-11-21T10:57:20.017Z,93.00
2022-11-21T10:57:54.841Z,92.30
2022-11-21T10:58:45.228Z,92.30
2022-11-21T10:59:30.772Z,92.30
2022-11-21T11:00:12.457Z,92.40
2022-11-21T11:00:57.254Z,93.10
2022-11-21T11:01:34.519Z,92.80
2022-11-21T11:02:15.203Z,92.40
2022-11-21T11:02:55.880Z,92.40
2022-11-21T11:03:31.455Z,92.30
2022-11-21T11:04:26.807Z,92.50
2022-11-21T11:05:28.477Z,92.40
2022-11-21T11:06:00.281Z,92.40
2022-11-21T11:06:32.115Z,92.40
2022-11-21T11:07:27.400Z,92.60
2022-11-21T11:08:14.057Z,92.40
2022-11-21T11:08:53.037Z,92.60
2022-11-21T11:09:33.018Z,92.30
2022-11-21T11:10:27.500Z,92.40
2022-11-21T11:11:13.495Z,92.40
2022-11-21T11:11:45.259Z,92.40
2022-11-21T11:12:46.826Z,92.50
2022-11-21T11:13:46.885Z,92.40
2022-11-21T11:14:30.982Z,92.40
2022-11-21T11:15:02.937Z,92.70
2022-11-21T11:15:35.702Z,92.50
2022-11-21T11:16:10.476Z,92.50
2022-11-21T11:16:46.841Z,92.50
2022-11-21T11:17:31.391Z,93.10
2022-11-21T11:18:09.327Z,92.70
2022-11-21T11:18:50.256Z,92.60
2022-11-21T11:19:35.454Z,92.90
2022-11-21T11:20:31.074Z,92.40
2022-11-21T11:21:14.251Z,92.60
2022-11-21T11:21:47.680Z,92.50
2022-11-21T11:22:29.662Z,92.60
2022-11-21T11:23:22.335Z,92.70
2022-11-21T11:24:05.520Z,92.40
2022-11-21T11:24:37.288Z,92.60
2022-11-21T11:25:10.043Z,92.50
2022-11-21T11:25:56.075Z,93.00
2022-11-21T11:26:30.453Z,92.50
2022-11-21T11:27:03.648Z,92.50
2022-11-21T11:27:37.670Z,92.50
2022-11-21T11:28:12.323Z,93.00
2022-11-21T11:28:44.065Z,93.10
2022-11-21T11:29:27.591Z,92.60
2022-11-21T11:30:07.595Z,92.60
2022-11-21T11:30:40.989Z,92.60
2022-11-21T11:31:12.749Z,93.30
2022-11-21T11:31:50.170Z,92.70
2022-11-21T11:32:22.702Z,92.60
2022-11-21T11:32:54.514Z,92.70
2022-11-21T11:33:33.721Z,92.90
2022-11-21T11:34:10.215Z,93.00
2022-11-21T11:34:48.966Z,92.70
2022-11-21T11:35:23.182Z,92.80
2022-11-21T11:36:08.317Z,92.70
2022-11-21T11:36:55.287Z,92.70
2022-11-21T11:37:41.822Z,92.80
2022-11-21T11:38:13.792Z,92.80
2022-11-21T11:38:55.177Z,93.10
2022-11-21T11:39:48.522Z,93.60
2022-11-21T11:40:43.745Z,92.90
2022-11-21T11:42:03.769Z,92.90
2022-11-21T11:43:44.458Z,93.00
2022-11-21T11:44:47.048Z,93.00
2022-11-21T11:46:06.605Z,93.10
2022-11-21T11:47:15.832Z,93.10
2022-11-21T11:47:55.850Z,93.70
2022-11-21T11:48:29.815Z,93.10
2022-11-21T11:49:20.459Z,93.70
2022-11-21T11:50:11.272Z,93.60
2022-11-21T11:51:01.032Z,93.20
2022-11-21T11:51:39.792Z,93.20
2022-11-21T11:52:14.719Z,93.20
2022-11-21T11:52:59.357Z,93.20
2022-11-21T11:53:41.931Z,93.70
2022-11-21T11:54:26.637Z,94.20
2022-11-21T11:55:06.879Z,93.20
2022-11-21T11:56:04.660Z,93.20
2022-11-21T11:56:38.546Z,93.30
2022-11-21T11:57:10.989Z,93.30
2022-11-21T11:57:43.837Z,93.20
2022-11-21T11:58:51.653Z,93.50
2022-11-21T11:59:40.880Z,93.10
2022-11-21T12:00:39.708Z,93.50
2022-11-21T12:01:17.530Z,93.20
2022-11-21T12:02:12.085Z,93.00
2022-11-21T12:02:58.692Z,93.00
2022-11-21T12:03:39.382Z,93.10
2022-11-21T12:04:18.204Z,93.60
2022-11-21T12:05:08.815Z,93.10
2022-11-21T12:05:54.761Z,93.00
2022-11-21T12:07:26.137Z,93.10
2022-11-21T12:08:39.571Z,93.10
2022-11-21T12:08:47.560Z,93.10
2022-11-21T12:09:35.822Z,93.20
2022-11-21T12:10:23.069Z,93.20
2022-11-21T12:11:24.949Z,93.20
2022-11-21T12:12:07.950Z,93.10
2022-11-21T12:12:44.555Z,93.10
2022-11-21T12:13:21.522Z,93.30
2022-11-21T12:13:57.150Z,93.00
2022-11-21T12:14:59.594Z,93.00
2022-11-21T12:16:03.281Z,93.20
2022-11-21T12:16:41.348Z,92.90
2022-11-21T12:17:19.480Z,92.90